createdAt,value
2018-03-04T00:00:58.054Z,79.10
2018-03-04T00:03:30.425Z,79.30
2018-03-04T00:06:04.646Z,78.90
2018-03-04T00:08:39.877Z,78.70
2018-03-04T00:11:12.655Z,78.70
2018-03-04T00:13:45.705Z,78.40
2018-03-04T00:16:21.395Z,78.30
2018-03-04T00:18:57.035Z,78.10
2018-03-04T00:21:29.625Z,78.40
2018-03-04T00:24:04.238Z,78.40
2018-03-04T00:26:35.765Z,78.30
2018-03-04T00:29:07.865Z,78.60
2018-03-04T00:31:39.105Z,78.40
2018-03-04T00:34:10.354Z,78.50
2018-03-04T00:36:45.735Z,78.40
2018-03-04T00:39:21.035Z,79.10
2018-03-04T00:41:53.605Z,79.10
2018-03-04T00:44:25.366Z,80.10
2018-03-04T00:47:01.515Z,81.00
2018-03-04T00:49:33.486Z,81.30
2018-03-04T00:52:07.485Z,81.40
2018-03-04T00:54:44.735Z,81.90
2018-03-04T00:57:24.015Z,81.80
2018-03-04T00:59:58.365Z,81.70
2018-03-04T01:02:29.505Z,81.90
2018-03-04T01:05:02.589Z,82.20
2018-03-04T01:07:36.286Z,82.50
2018-03-04T01:10:17.065Z,83.00
2018-03-04T01:12:50.355Z,83.90
2018-03-04T01:15:24.434Z,83.50
2018-03-04T01:17:58.466Z,84.40
2018-03-04T01:20:37.265Z,83.70
2018-03-04T01:23:09.564Z,84.50
2018-03-04T01:25:40.274Z,84.50
2018-03-04T01:28:14.635Z,84.50
2018-03-04T01:30:49.825Z,84.30
2018-03-04T01:33:26.295Z,84.40
2018-03-04T01:36:03.165Z,84.40
2018-03-04T01:38:40.254Z,84.70
2018-03-04T01:41:15.696Z,84.60
2018-03-04T01:43:48.744Z,85.00
2018-03-04T01:46:25.865Z,85.20
2018-03-04T01:48:59.355Z,85.50
2018-03-04T01:51:42.696Z,85.00
2018-03-04T01:54:14.885Z,85.20
2018-03-04T01:56:47.124Z,85.00
2018-03-04T01:59:18.795Z,84.90
2018-03-04T02:01:52.304Z,84.30
2018-03-04T02:04:32.025Z,84.60
2018-03-04T02:07:07.085Z,83.80
2018-03-04T02:09:42.904Z,84.00
2018-03-04T02:12:15.395Z,83.70
2018-03-04T02:14:46.865Z,83.70
2018-03-04T02:17:19.824Z,83.60
2018-03-04T02:19:51.505Z,82.80
2018-03-04T02:22:23.124Z,82.20
2018-03-04T02:24:55.795Z,81.70
2018-03-04T02:27:32.274Z,81.30
2018-03-04T02:30:12.666Z,82.20
2018-03-04T02:32:44.096Z,82.00
2018-03-04T02:35:23.216Z,82.70
2018-03-04T02:37:56.505Z,82.20
2018-03-04T02:40:29.115Z,81.90
2018-03-04T02:43:02.724Z,81.50
2018-03-04T02:45:35.085Z,81.30
2018-03-04T02:48:08.866Z,82.00
2018-03-04T02:50:40.714Z,81.60
2018-03-04T02:53:13.199Z,81.60
2018-03-04T02:55:51.615Z,81.70
2018-03-04T02:58:23.357Z,82.30
2018-03-04T03:00:56.659Z,81.40
2018-03-04T03:03:31.586Z,81.20
2018-03-04T03:06:03.552Z,81.20
2018-03-04T03:08:35.914Z,80.90
2018-03-04T03:11:09.415Z,79.90
2018-03-04T03:13:43.635Z,80.60
2018-03-04T03:16:19.684Z,80.10
2018-03-04T03:18:56.725Z,80.50
2018-03-04T03:21:30.265Z,80.40
2018-03-04T03:24:05.435Z,80.40
2018-03-04T03:26:37.675Z,80.00
2018-03-04T03:29:10.186Z,80.10
2018-03-04T03:31:43.656Z,80.30
2018-03-04T03:34:17.555Z,80.60
2018-03-04T03:36:49.005Z,80.40
2018-03-04T03:39:24.245Z,80.90
2018-03-04T03:41:55.772Z,81.70
2018-03-04T03:44:28.215Z,81.60
2018-03-04T03:47:00.165Z,81.90
2018-03-04T03:49:35.368Z,82.30
2018-03-04T03:52:10.195Z,81.10
2018-03-04T03:54:44.194Z,81.10
2018-03-04T03:57:20.255Z,81.70
2018-03-04T03:59:52.734Z,81.10
2018-03-04T04:02:28.515Z,81.30
2018-03-04T04:05:00.244Z,81.30
2018-03-04T04:07:34.565Z,81.20
2018-03-04T04:10:07.544Z,81.20
2018-03-04T04:12:39.794Z,81.10
2018-03-04T04:15:14.125Z,81.60
2018-03-04T04:17:46.524Z,81.80
2018-03-04T04:20:18.734Z,82.30
2018-03-04T04:22:52.724Z,82.10
2018-03-04T04:25:24.945Z,82.20
2018-03-04T04:27:59.254Z,82.20
2018-03-04T04:30:40.724Z,82.10
2018-03-04T04:33:12.335Z,82.00
2018-03-04T04:35:45.324Z,82.10
2018-03-04T04:38:18.614Z,82.50
2018-03-04T04:40:50.993Z,82.00
2018-03-04T04:43:24.755Z,82.10
2018-03-04T04:45:56.354Z,81.90
2018-03-04T04:48:31.864Z,82.20
2018-03-04T04:51:05.045Z,82.20
2018-03-04T04:53:38.445Z,82.20
2018-03-04T04:56:09.074Z,82.20
2018-03-04T04:58:42.675Z,82.30
2018-03-04T05:01:18.734Z,82.30
2018-03-04T05:03:52.265Z,82.50
2018-03-04T05:06:24.905Z,82.50
2018-03-04T05:08:57.094Z,81.90
2018-03-04T05:11:28.784Z,82.80
2018-03-04T05:14:03.147Z,82.10
2018-03-04T05:16:36.129Z,82.10
2018-03-04T05:19:09.456Z,82.30
2018-03-04T05:21:41.489Z,82.20
2018-03-04T05:24:14.887Z,82.30
2018-03-04T05:26:46.736Z,82.10
2018-03-04T05:29:20.645Z,81.70
2018-03-04T05:31:51.487Z,81.60
2018-03-04T05:34:27.035Z,81.70
2018-03-04T05:36:59.295Z,81.30
2018-03-04T05:39:35.392Z,81.20
2018-03-04T05:42:08.236Z,80.90
2018-03-04T05:44:42.046Z,81.30
2018-03-04T05:47:15.746Z,81.60
2018-03-04T05:49:54.265Z,82.70
2018-03-04T05:52:30.125Z,82.20
2018-03-04T05:55:02.496Z,81.30
2018-03-04T05:57:34.747Z,82.10
2018-03-04T06:00:06.758Z,81.50
2018-03-04T06:02:38.806Z,80.80
2018-03-04T06:05:11.565Z,80.90
2018-03-04T06:07:42.815Z,80.90
2018-03-04T06:10:24.325Z,80.30
2018-03-04T06:12:57.896Z,80.30
2018-03-04T06:15:31.185Z,81.30
2018-03-04T06:18:01.756Z,80.60
2018-03-04T06:20:38.996Z,81.50
2018-03-04T06:23:11.376Z,81.50
2018-03-04T06:25:44.456Z,81.30
2018-03-04T06:28:16.806Z,81.00
2018-03-04T06:30:52.745Z,80.90
2018-03-04T06:33:25.071Z,81.70
2018-03-04T06:35:58.875Z,81.00
2018-03-04T06:38:32.865Z,81.40
2018-03-04T06:41:06.674Z,81.60
2018-03-04T06:43:41.096Z,81.60
2018-03-04T06:46:13.158Z,81.80
2018-03-04T06:48:44.196Z,82.00
2018-03-04T06:51:15.436Z,82.00
2018-03-04T06:53:47.652Z,82.20
2018-03-04T06:56:20.195Z,82.20
2018-03-04T06:58:57.576Z,82.50
2018-03-04T07:01:30.255Z,82.60
2018-03-04T07:04:01.916Z,82.00
2018-03-04T07:06:34.086Z,82.10
2018-03-04T07:09:08.195Z,82.90
2018-03-04T07:11:39.535Z,83.90
2018-03-04T07:14:11.916Z,82.00
2018-03-04T07:16:51.445Z,82.00
2018-03-04T07:19:24.955Z,82.00
2018-03-04T07:21:58.174Z,81.80
2018-03-04T07:24:32.555Z,82.50
2018-03-04T07:27:04.516Z,82.00
2018-03-04T07:29:40.604Z,81.60
2018-03-04T07:32:13.866Z,81.40
2018-03-04T07:34:48.755Z,81.40
2018-03-04T07:37:27.415Z,81.80
2018-03-04T07:39:59.075Z,81.80
2018-03-04T07:42:29.706Z,81.00
2018-03-04T07:45:09.483Z,81.20
2018-03-04T07:47:42.525Z,80.90
2018-03-04T07:50:14.599Z,80.60
2018-03-04T07:52:47.067Z,80.70
2018-03-04T07:55:20.495Z,80.00
2018-03-04T07:58:01.025Z,79.60
2018-03-04T08:00:32.894Z,79.20
2018-03-04T08:03:04.825Z,79.90
2018-03-04T08:05:36.506Z,80.00
2018-03-04T08:08:09.216Z,79.40
2018-03-04T08:10:41.185Z,79.40
2018-03-04T08:13:13.146Z,79.30
2018-03-04T08:15:48.146Z,78.90
2018-03-04T08:18:19.625Z,77.90
2018-03-04T08:20:53.496Z,77.90
2018-03-04T08:23:25.975Z,77.80
2018-03-04T08:26:04.194Z,77.70
2018-03-04T08:28:40.170Z,77.70
2018-03-04T08:31:11.995Z,77.50
2018-03-04T08:33:43.956Z,77.60
2018-03-04T08:36:17.966Z,76.90
2018-03-04T08:38:50.235Z,76.70
2018-03-04T08:41:26.296Z,76.70
2018-03-04T08:43:58.766Z,77.50
2018-03-04T08:46:30.526Z,76.90
2018-03-04T08:49:08.736Z,76.60
2018-03-04T08:51:47.765Z,76.90
2018-03-04T08:54:20.134Z,76.60
2018-03-04T08:56:52.707Z,76.60
2018-03-04T08:59:30.416Z,76.20
2018-03-04T09:02:02.365Z,75.50
2018-03-04T09:04:37.296Z,75.60
2018-03-04T09:07:10.586Z,75.50
2018-03-04T09:09:51.261Z,75.10
2018-03-04T09:12:25.106Z,75.00
2018-03-04T09:14:59.485Z,75.30
2018-03-04T09:17:32.606Z,74.50
2018-03-04T09:20:07.196Z,75.00
2018-03-04T09:22:43.555Z,74.10
2018-03-04T09:25:15.415Z,73.40
2018-03-04T09:27:47.314Z,72.70
2018-03-04T09:30:21.185Z,71.70
2018-03-04T09:32:52.535Z,71.00
2018-03-04T09:35:25.206Z,71.00
2018-03-04T09:37:59.525Z,71.70
2018-03-04T09:40:31.696Z,72.20
2018-03-04T09:43:03.969Z,71.20
2018-03-04T09:45:42.874Z,69.60
2018-03-04T09:48:15.965Z,69.70
2018-03-04T09:50:48.648Z,71.30
2018-03-04T09:53:22.096Z,68.30
2018-03-04T09:55:53.666Z,68.70
2018-03-04T09:58:23.925Z,68.60
2018-03-04T10:00:56.327Z,68.70
2018-03-04T10:03:29.998Z,69.30
2018-03-04T10:06:01.987Z,68.70
2018-03-04T10:08:35.765Z,67.70
2018-03-04T10:11:12.166Z,67.70
2018-03-04T10:13:46.226Z,66.20
2018-03-04T10:16:19.788Z,65.70
2018-03-04T10:18:52.656Z,66.20
2018-03-04T10:21:23.056Z,66.20
2018-03-04T10:23:54.825Z,65.20
2018-03-04T10:26:29.745Z,63.40
2018-03-04T10:29:01.087Z,64.30
2018-03-04T10:31:35.795Z,64.70
2018-03-04T10:34:13.305Z,63.60
2018-03-04T10:36:45.256Z,62.50
2018-03-04T10:39:19.714Z,62.90
2018-03-04T10:41:51.135Z,59.70
2018-03-04T10:44:22.985Z,60.30
2018-03-04T10:46:54.755Z,60.20
2018-03-04T10:49:27.426Z,58.80
2018-03-04T10:51:59.285Z,57.20
2018-03-04T10:54:30.426Z,57.60
2018-03-04T10:57:07.786Z,57.90
2018-03-04T10:59:41.316Z,57.90
2018-03-04T11:02:18.736Z,56.90
2018-03-04T11:04:51.076Z,56.00
2018-03-04T11:07:26.026Z,56.60
2018-03-04T11:09:57.976Z,57.20
2018-03-04T11:12:33.316Z,57.70
2018-03-04T11:15:06.786Z,57.70
2018-03-04T11:17:38.686Z,59.40
2018-03-04T11:20:10.026Z,58.00
2018-03-04T11:22:41.856Z,57.10
2018-03-04T11:25:18.346Z,57.40
2018-03-04T11:27:51.644Z,56.70
2018-03-04T11:30:22.676Z,55.30
2018-03-04T11:32:54.376Z,56.10
2018-03-04T11:35:30.810Z,55.10
2018-03-04T11:38:03.105Z,54.70
2018-03-04T11:40:35.344Z,55.00
2018-03-04T11:43:08.757Z,55.40
2018-03-04T11:45:41.665Z,55.30
2018-03-04T11:48:13.276Z,54.70
2018-03-04T11:50:47.895Z,54.50
2018-03-04T11:53:18.116Z,53.10
2018-03-04T11:55:52.458Z,52.70
2018-03-04T11:58:26.346Z,51.00
2018-03-04T12:00:57.295Z,51.60
2018-03-04T12:03:28.645Z,51.70
2018-03-04T12:06:02.439Z,49.20
2018-03-04T12:08:36.836Z,47.20
2018-03-04T12:11:10.147Z,47.20
2018-03-04T12:13:42.407Z,48.70
2018-03-04T12:16:14.605Z,49.60
2018-03-04T12:18:50.226Z,50.40
2018-03-04T12:21:21.364Z,50.60
2018-03-04T12:23:53.237Z,50.50
2018-03-04T12:26:26.754Z,49.80
2018-03-04T12:29:01.375Z,48.50
2018-03-04T12:31:32.935Z,47.90
2018-03-04T12:34:05.075Z,47.00
2018-03-04T12:36:46.667Z,44.70
2018-03-04T12:39:19.137Z,43.70
2018-03-04T12:41:54.266Z,44.20
2018-03-04T12:44:30.945Z,45.20
2018-03-04T12:47:03.425Z,45.30
2018-03-04T12:49:35.185Z,44.30
2018-03-04T12:52:07.034Z,44.00
2018-03-04T12:54:40.635Z,43.90
2018-03-04T12:57:12.005Z,44.00
2018-03-04T12:59:44.246Z,44.60
2018-03-04T13:02:17.038Z,45.60
2018-03-04T13:04:48.790Z,46.30
2018-03-04T13:07:26.805Z,46.60
2018-03-04T13:10:00.429Z,46.90
2018-03-04T13:12:37.508Z,47.20
2018-03-04T13:15:12.705Z,47.90
2018-03-04T13:17:50.296Z,48.10
2018-03-04T13:20:22.056Z,51.20
2018-03-04T13:22:52.275Z,51.40
2018-03-04T13:25:24.768Z,52.60
2018-03-04T13:27:57.695Z,53.50
2018-03-04T13:30:28.097Z,53.50
2018-03-04T13:33:02.077Z,54.60
2018-03-04T13:35:39.566Z,55.00
2018-03-04T13:38:11.936Z,54.70
2018-03-04T13:40:45.816Z,55.50
2018-03-04T13:43:17.295Z,55.20
2018-03-04T13:45:49.154Z,56.20
2018-03-04T13:48:20.616Z,55.80
2018-03-04T13:50:53.855Z,55.80
2018-03-04T13:53:31.495Z,56.50
2018-03-04T13:56:06.936Z,57.30
2018-03-04T13:58:37.285Z,57.30
2018-03-04T14:01:08.505Z,57.20
2018-03-04T14:03:40.225Z,57.40
2018-03-04T14:06:15.870Z,57.50
2018-03-04T14:08:49.506Z,56.30
2018-03-04T14:11:21.166Z,56.90
2018-03-04T14:13:54.836Z,58.60
2018-03-04T14:16:26.518Z,58.20
2018-03-04T14:18:59.268Z,58.90
2018-03-04T14:21:31.366Z,59.50
2018-03-04T14:24:06.816Z,59.90
2018-03-04T14:26:40.456Z,59.70
2018-03-04T14:29:15.694Z,59.80
2018-03-04T14:31:45.845Z,59.80
2018-03-04T14:34:17.526Z,59.20
2018-03-04T14:36:48.785Z,59.50
2018-03-04T14:39:20.826Z,59.20
2018-03-04T14:41:56.186Z,58.10
2018-03-04T14:44:28.446Z,57.70
2018-03-04T14:47:03.275Z,57.40
2018-03-04T14:49:34.009Z,57.40
2018-03-04T14:52:06.275Z,57.40
2018-03-04T14:54:40.505Z,57.50
2018-03-04T14:57:12.385Z,56.90
2018-03-04T14:59:46.045Z,56.60
2018-03-04T15:02:20.805Z,57.20
2018-03-04T15:04:54.376Z,56.80
2018-03-04T15:07:26.745Z,57.00
2018-03-04T15:09:57.586Z,57.00
2018-03-04T15:12:35.602Z,56.70
2018-03-04T15:15:06.416Z,56.60
2018-03-04T15:17:37.865Z,56.70
2018-03-04T15:20:09.625Z,56.50
2018-03-04T15:22:43.325Z,56.30
2018-03-04T15:25:15.878Z,56.10
2018-03-04T15:27:48.336Z,56.30
2018-03-04T15:30:24.166Z,56.30
2018-03-04T15:32:57.255Z,56.40
2018-03-04T15:35:32.845Z,56.40
2018-03-04T15:38:05.344Z,56.30
2018-03-04T15:40:39.567Z,56.20
2018-03-04T15:43:12.376Z,56.10
2018-03-04T15:45:44.005Z,55.90
2018-03-04T15:48:15.685Z,56.00
2018-03-04T15:53:24.875Z,56.30
2018-03-04T15:56:01.365Z,55.70
2018-03-04T15:58:33.255Z,55.60
2018-03-04T16:01:05.177Z,55.60
2018-03-04T16:03:41.156Z,55.60
2018-03-04T16:06:15.556Z,55.90
2018-03-04T16:08:47.455Z,55.90
2018-03-04T16:11:18.808Z,56.00
2018-03-04T16:13:51.036Z,56.00
2018-03-04T16:16:25.145Z,55.50
2018-03-04T16:19:01.205Z,55.30
2018-03-04T16:21:33.165Z,56.00
2018-03-04T16:24:04.436Z,55.80
2018-03-04T16:26:39.445Z,55.90
2018-03-04T16:29:11.005Z,56.00
2018-03-04T16:31:48.086Z,55.70
2018-03-04T16:34:23.236Z,56.20
2018-03-04T16:36:56.861Z,55.70
2018-03-04T16:39:28.406Z,55.50
2018-03-04T16:42:02.615Z,55.70
2018-03-04T16:44:34.345Z,55.60
2018-03-04T16:47:05.736Z,55.60
2018-03-04T16:49:39.397Z,55.50
2018-03-04T16:52:12.324Z,55.60
2018-03-04T16:54:45.367Z,55.80
2018-03-04T16:57:16.506Z,55.90
2018-03-04T16:59:49.185Z,55.90
2018-03-04T17:02:22.476Z,55.90
2018-03-04T17:04:58.135Z,55.70
2018-03-04T17:07:29.615Z,56.10
2018-03-04T17:10:03.386Z,56.40
2018-03-04T17:12:36.565Z,55.80
2018-03-04T17:15:14.485Z,56.30
2018-03-04T17:17:45.916Z,56.60
2018-03-04T17:20:20.236Z,56.60
2018-03-04T17:22:56.095Z,57.00
2018-03-04T17:25:28.085Z,56.80
2018-03-04T17:28:03.216Z,57.10
2018-03-04T17:30:36.876Z,57.40
2018-03-04T17:33:12.855Z,57.20
2018-03-04T17:35:44.847Z,57.20
2018-03-04T17:38:17.934Z,57.40
2018-03-04T17:40:50.405Z,57.40
2018-03-04T17:43:25.525Z,57.40
2018-03-04T17:46:00.136Z,57.40
2018-03-04T17:48:32.726Z,58.20
2018-03-04T17:51:04.156Z,58.00
2018-03-04T17:53:36.026Z,57.90
2018-03-04T17:56:07.265Z,57.90
2018-03-04T17:58:39.256Z,58.20
2018-03-04T18:01:11.399Z,57.90
2018-03-04T18:03:43.856Z,57.60
2018-03-04T18:06:16.875Z,57.70
2018-03-04T18:08:49.453Z,57.50
2018-03-04T18:11:23.745Z,57.00
2018-03-04T18:13:55.297Z,56.90
2018-03-04T18:16:28.886Z,56.70
2018-03-04T18:19:03.516Z,56.70
2018-03-04T18:21:37.636Z,56.60
2018-03-04T18:24:08.615Z,55.50
2018-03-04T18:26:42.856Z,55.50
2018-03-04T18:29:17.316Z,55.00
2018-03-04T18:31:51.948Z,55.30
2018-03-04T18:34:31.202Z,55.00
2018-03-04T18:37:04.596Z,54.30
2018-03-04T18:39:39.886Z,54.60
2018-03-04T18:42:12.685Z,54.60
2018-03-04T18:44:46.696Z,53.80
2018-03-04T18:47:24.496Z,53.30
2018-03-04T18:49:56.665Z,53.30
2018-03-04T18:52:34.156Z,56.20
2018-03-04T18:55:06.355Z,56.30
2018-03-04T18:57:43.715Z,55.60
2018-03-04T19:00:14.445Z,55.60
2018-03-04T19:02:46.756Z,53.90
2018-03-04T19:05:19.186Z,53.90
2018-03-04T19:07:51.856Z,53.90
2018-03-04T19:10:23.876Z,53.40
2018-03-04T19:12:54.965Z,53.40
2018-03-04T19:15:38.131Z,53.20
2018-03-04T19:18:12.436Z,52.30
2018-03-04T19:20:44.375Z,51.10
2018-03-04T19:23:20.835Z,50.90
2018-03-04T19:25:54.136Z,50.50
2018-03-04T19:28:27.645Z,50.10
2018-03-04T19:31:02.908Z,50.40
2018-03-04T19:33:35.654Z,49.70
2018-03-04T19:36:07.617Z,49.40
2018-03-04T19:38:40.635Z,46.00
2018-03-04T19:41:13.605Z,46.60
2018-03-04T19:43:48.738Z,47.30
2018-03-04T19:46:19.886Z,46.90
2018-03-04T19:48:53.096Z,47.60
2018-03-04T19:51:26.485Z,48.30
2018-03-04T19:54:00.495Z,48.20
2018-03-04T19:56:35.033Z,48.00
2018-03-04T19:59:10.626Z,48.30
2018-03-04T20:01:48.555Z,48.00
2018-03-04T20:04:22.476Z,47.80
2018-03-04T20:06:54.333Z,47.60
2018-03-04T20:09:36.495Z,48.00
2018-03-04T20:12:07.336Z,47.70
2018-03-04T20:14:41.646Z,51.60
2018-03-04T20:17:17.896Z,51.90
2018-03-04T20:19:50.616Z,53.00
2018-03-04T20:22:29.856Z,56.00
2018-03-04T20:25:02.496Z,56.00
2018-03-04T20:27:36.816Z,57.30
2018-03-04T20:30:11.276Z,57.30
2018-03-04T20:32:43.766Z,57.50
2018-03-04T20:35:23.666Z,57.50
2018-03-04T20:37:57.497Z,57.90
2018-03-04T20:40:28.726Z,58.00
2018-03-04T20:42:59.766Z,58.00
2018-03-04T20:45:30.887Z,57.90
2018-03-04T20:48:10.546Z,58.90
2018-03-04T20:50:42.187Z,58.90
2018-03-04T20:53:15.525Z,60.30
2018-03-04T20:55:48.366Z,61.30
2018-03-04T20:58:20.257Z,62.10
2018-03-04T21:00:51.955Z,61.80
2018-03-04T21:03:23.910Z,61.70
2018-03-04T21:05:55.026Z,61.60
2018-03-04T21:08:27.936Z,62.70
2018-03-04T21:10:59.316Z,62.60
2018-03-04T21:13:31.176Z,62.60
2018-03-04T21:16:02.896Z,62.60
2018-03-04T21:18:36.018Z,64.20
2018-03-04T21:21:09.355Z,64.30
2018-03-04T21:23:41.787Z,64.40
2018-03-04T21:26:14.469Z,64.70
2018-03-04T21:28:47.146Z,64.50
2018-03-04T21:31:19.087Z,64.00
2018-03-04T21:33:51.385Z,63.60
2018-03-04T21:36:23.604Z,64.10
2018-03-04T21:38:59.386Z,63.90
2018-03-04T21:41:31.610Z,63.70
2018-03-04T21:44:11.896Z,63.70
2018-03-04T21:46:45.217Z,64.10
2018-03-04T21:49:17.286Z,63.80
2018-03-04T21:51:49.586Z,63.60
2018-03-04T21:54:28.265Z,63.60
2018-03-04T21:57:00.029Z,63.20
2018-03-04T21:59:38.886Z,63.00
2018-03-04T22:02:12.966Z,63.10
2018-03-04T22:04:45.437Z,63.40
2018-03-04T22:07:18.835Z,63.20
2018-03-04T22:09:52.115Z,63.20
2018-03-04T22:12:24.286Z,62.70
2018-03-04T22:14:57.377Z,64.00
2018-03-04T22:17:31.296Z,63.40
2018-03-04T22:20:04.375Z,63.30
2018-03-04T22:22:41.347Z,63.20
2018-03-04T22:25:20.588Z,61.90
2018-03-04T22:27:53.568Z,62.90
2018-03-04T22:30:28.595Z,63.10
2018-03-04T22:33:02.405Z,63.10
2018-03-04T22:35:34.275Z,62.90
2018-03-04T22:38:07.056Z,62.70
2018-03-04T22:40:40.435Z,62.50
2018-03-04T22:43:12.516Z,62.40
2018-03-04T22:45:46.906Z,62.80
2018-03-04T22:48:20.425Z,62.30
2018-03-04T22:50:53.235Z,62.30
2018-03-04T22:53:27.736Z,62.10
2018-03-04T22:56:02.935Z,61.50
2018-03-04T22:58:37.386Z,61.70
2018-03-04T23:01:10.576Z,61.70
2018-03-04T23:03:47.695Z,61.80
2018-03-04T23:06:26.917Z,61.40
2018-03-04T23:09:02.545Z,61.40
2018-03-04T23:11:33.496Z,60.90
2018-03-04T23:14:04.558Z,60.90
2018-03-04T23:16:36.985Z,61.40
2018-03-04T23:19:10.026Z,60.70
2018-03-04T23:21:42.905Z,60.80
2018-03-04T23:24:16.096Z,60.50
2018-03-04T23:26:48.316Z,60.50
2018-03-04T23:29:19.926Z,60.30
2018-03-04T23:31:52.249Z,60.50
2018-03-04T23:34:26.456Z,60.20
2018-03-04T23:36:57.497Z,60.10
2018-03-04T23:39:29.365Z,61.20
2018-03-04T23:42:01.226Z,60.70
2018-03-04T23:44:34.106Z,60.40
2018-03-04T23:47:09.136Z,60.70
2018-03-04T23:49:43.455Z,60.50
2018-03-04T23:52:17.486Z,61.10
2018-03-04T23:54:51.476Z,60.20
2018-03-04T23:57:23.926Z,60.00
2018-03-04T23:59:58.475Z,64.90
